RYR7828 EGNV-LEPA
Flight info
| Callsign | RYR7828 |
|---|---|
| Flight time | N/A |
| Altitude | 37000 |
| Route | GASKO P16 RIBEL UP16 CROFT UL612 HON DCT SITET UN859 SOPIL DCT BALAN DCT EVPOK DCT NARAK DCT GAI DCT LOMRA DCT ROCAN DCT IBRAP N13 LORES |
| Aircraft | A320/M-SDE3FGHIRWY/LB1 |
Departure
| Time | 2026-04-22 12:45 |
|---|---|
| Airport | Teesside International Airport (EGNV) |
Arrival
| Time | N/A |
|---|---|
| Airport | Palma de Mallorca Airport (LEPA) |
| Time | Latitude | Longitude | Altitude | Speed | Heading |
|---|---|---|---|---|---|
| 2026-04-22 12:34 | 54.51124 | -1.43307 | 125 ft | 0 kts | 329° |
| 2026-04-22 12:36 | 54.51123 | -1.43307 | 125 ft | 0 kts | 329° |
| 2026-04-22 12:36 | 54.51112 | -1.43295 | 126 ft | 4 kts | 332° |
| 2026-04-22 12:37 | 54.51088 | -1.43275 | 123 ft | 4 kts | 339° |
| 2026-04-22 12:37 | 54.51062 | -1.43263 | 124 ft | 4 kts | 358° |
| 2026-04-22 12:37 | 54.51040 | -1.43271 | 124 ft | 3 kts | 53° |
| 2026-04-22 12:37 | 54.51035 | -1.43282 | 126 ft | 0 kts | 59° |
| 2026-04-22 12:40 | 54.51036 | -1.43281 | 129 ft | 1 kts | 59° |
| 2026-04-22 12:40 | 54.51048 | -1.43245 | 126 ft | 6 kts | 59° |
| 2026-04-22 12:40 | 54.51066 | -1.43159 | 126 ft | 9 kts | 88° |
| 2026-04-22 12:40 | 54.51063 | -1.43029 | 126 ft | 13 kts | 92° |
| 2026-04-22 12:41 | 54.51057 | -1.42854 | 122 ft | 13 kts | 93° |
| 2026-04-22 12:41 | 54.51012 | -1.42774 | 121 ft | 10 kts | 201° |
| 2026-04-22 12:41 | 54.50968 | -1.42849 | 121 ft | 10 kts | 228° |
| 2026-04-22 12:41 | 54.50900 | -1.42977 | 123 ft | 18 kts | 227° |
| 2026-04-22 12:42 | 54.50802 | -1.43160 | 125 ft | 23 kts | 227° |
| 2026-04-22 12:42 | 54.50700 | -1.43351 | 124 ft | 21 kts | 227° |
| 2026-04-22 12:42 | 54.50599 | -1.43539 | 121 ft | 21 kts | 227° |
| 2026-04-22 12:42 | 54.50501 | -1.43724 | 120 ft | 21 kts | 227° |
| 2026-04-22 12:43 | 54.50410 | -1.43893 | 122 ft | 18 kts | 227° |
| 2026-04-22 12:43 | 54.50360 | -1.44064 | 121 ft | 15 kts | 259° |
| 2026-04-22 12:43 | 54.50317 | -1.44192 | 125 ft | 11 kts | 228° |
| 2026-04-22 12:43 | 54.50264 | -1.44189 | 123 ft | 9 kts | 96° |
| 2026-04-22 12:44 | 54.50289 | -1.44115 | 126 ft | 0 kts | 47° |
| 2026-04-22 12:44 | 54.50346 | -1.44011 | 123 ft | 45 kts | 47° |
| 2026-04-22 12:44 | 54.50719 | -1.43315 | 126 ft | 109 kts | 47° |
| 2026-04-22 12:45 | 54.51330 | -1.42186 | 388 ft | 133 kts | 46° |
| 2026-04-22 12:45 | 54.51948 | -1.41044 | 1135 ft | 129 kts | 50° |
| 2026-04-22 12:45 | 54.52570 | -1.39871 | 1624 ft | 140 kts | 51° |
| 2026-04-22 12:45 | 54.53416 | -1.38808 | 1912 ft | 167 kts | 20° |
| 2026-04-22 12:46 | 54.54670 | -1.38932 | 2184 ft | 202 kts | 340° |
| 2026-04-22 12:46 | 54.55722 | -1.40750 | 2501 ft | 236 kts | 295° |
| 2026-04-22 12:46 | 54.55883 | -1.43673 | 2907 ft | 261 kts | 255° |
| 2026-04-22 12:46 | 54.54976 | -1.46412 | 3545 ft | 268 kts | 223° |
| 2026-04-22 12:47 | 54.53578 | -1.48518 | 4504 ft | 267 kts | 213° |
| 2026-04-22 12:47 | 54.52080 | -1.50393 | 5511 ft | 266 kts | 211° |
| 2026-04-22 12:47 | 54.50575 | -1.52278 | 6412 ft | 270 kts | 212° |
| 2026-04-22 12:47 | 54.49081 | -1.54270 | 7266 ft | 274 kts | 215° |
| 2026-04-22 12:48 | 54.47601 | -1.56376 | 8086 ft | 278 kts | 216° |
| 2026-04-22 12:48 | 54.46126 | -1.58579 | 8916 ft | 283 kts | 218° |
| 2026-04-22 12:48 | 54.44652 | -1.60852 | 9737 ft | 287 kts | 217° |
| 2026-04-22 12:48 | 54.43174 | -1.63174 | 10565 ft | 290 kts | 219° |
| 2026-04-22 12:49 | 54.41656 | -1.65564 | 10979 ft | 307 kts | 220° |
| 2026-04-22 12:49 | 54.40025 | -1.68125 | 11210 ft | 329 kts | 219° |
| 2026-04-22 12:49 | 54.38309 | -1.70827 | 11732 ft | 339 kts | 219° |
| 2026-04-22 12:49 | 54.36564 | -1.73577 | 12474 ft | 342 kts | 219° |
| 2026-04-22 12:50 | 54.34808 | -1.76339 | 13253 ft | 344 kts | 220° |
| 2026-04-22 12:50 | 54.33035 | -1.79117 | 14012 ft | 347 kts | 220° |
| 2026-04-22 12:50 | 54.31243 | -1.81919 | 14694 ft | 350 kts | 219° |
| 2026-04-22 12:50 | 54.29444 | -1.84733 | 15378 ft | 351 kts | 219° |
| 2026-04-22 12:51 | 54.27636 | -1.87555 | 16065 ft | 353 kts | 219° |
| 2026-04-22 12:51 | 54.25811 | -1.90394 | 16700 ft | 356 kts | 219° |
| 2026-04-22 12:51 | 54.23966 | -1.93258 | 17341 ft | 359 kts | 219° |
| 2026-04-22 12:51 | 54.22112 | -1.96140 | 17975 ft | 361 kts | 219° |
| 2026-04-22 12:52 | 54.20260 | -1.99069 | 18605 ft | 365 kts | 220° |
| 2026-04-22 12:52 | 54.18402 | -2.02059 | 19111 ft | 369 kts | 221° |
| 2026-04-22 12:52 | 54.16556 | -2.05048 | 19665 ft | 371 kts | 221° |
| 2026-04-22 12:52 | 54.14680 | -2.08084 | 20241 ft | 374 kts | 223° |
| 2026-04-22 12:53 | 54.12783 | -2.11144 | 20725 ft | 378 kts | 223° |
| 2026-04-22 12:53 | 54.10858 | -2.14237 | 21241 ft | 380 kts | 224° |
| 2026-04-22 12:53 | 54.08927 | -2.17328 | 21834 ft | 381 kts | 224° |
| 2026-04-22 12:53 | 54.06979 | -2.20433 | 22315 ft | 386 kts | 224° |
| 2026-04-22 12:54 | 54.05008 | -2.23570 | 22775 ft | 390 kts | 227° |
| 2026-04-22 12:54 | 54.02992 | -2.26688 | 23308 ft | 393 kts | 223° |
| 2026-04-22 12:54 | 54.00709 | -2.29315 | 23775 ft | 401 kts | 213° |
| 2026-04-22 12:54 | 53.98134 | -2.31242 | 24127 ft | 409 kts | 204° |
| 2026-04-22 12:55 | 53.95456 | -2.32952 | 24478 ft | 412 kts | 204° |
| 2026-04-22 12:55 | 53.92762 | -2.34676 | 24843 ft | 415 kts | 206° |
| 2026-04-22 12:55 | 53.90053 | -2.36415 | 25199 ft | 418 kts | 204° |
| 2026-04-22 12:55 | 53.87328 | -2.38168 | 25564 ft | 420 kts | 203° |
| 2026-04-22 12:56 | 53.84584 | -2.39933 | 25940 ft | 422 kts | 204° |
| 2026-04-22 12:56 | 53.81831 | -2.41702 | 26297 ft | 425 kts | 204° |
| 2026-04-22 12:56 | 53.79062 | -2.43477 | 26653 ft | 427 kts | 204° |
| 2026-04-22 12:56 | 53.76280 | -2.45257 | 27006 ft | 429 kts | 205° |
| 2026-04-22 12:57 | 53.73477 | -2.47041 | 27342 ft | 431 kts | 204° |
| 2026-04-22 12:57 | 53.70663 | -2.48826 | 27659 ft | 433 kts | 205° |
| 2026-04-22 12:57 | 53.67817 | -2.50545 | 27976 ft | 438 kts | 200° |
| 2026-04-22 12:57 | 53.64813 | -2.51555 | 28303 ft | 444 kts | 188° |
| 2026-04-22 12:58 | 53.61701 | -2.51624 | 28629 ft | 450 kts | 178° |
| 2026-04-22 12:58 | 53.58596 | -2.50710 | 28921 ft | 457 kts | 166° |
| 2026-04-22 12:58 | 53.55598 | -2.48851 | 29213 ft | 462 kts | 159° |
| 2026-04-22 12:58 | 53.52631 | -2.46726 | 29484 ft | 465 kts | 159° |
| 2026-04-22 12:59 | 53.49648 | -2.44612 | 29775 ft | 466 kts | 160° |
| 2026-04-22 12:59 | 53.46647 | -2.42500 | 30064 ft | 468 kts | 159° |
| 2026-04-22 12:59 | 53.43639 | -2.40390 | 30323 ft | 470 kts | 160° |
| 2026-04-22 12:59 | 53.40618 | -2.38271 | 30558 ft | 472 kts | 160° |
| 2026-04-22 13:00 | 53.37584 | -2.36145 | 30770 ft | 473 kts | 160° |
| 2026-04-22 13:00 | 53.34545 | -2.34013 | 30990 ft | 474 kts | 159° |
| 2026-04-22 13:00 | 53.31499 | -2.31872 | 31226 ft | 475 kts | 159° |
| 2026-04-22 13:00 | 53.28457 | -2.29738 | 31536 ft | 474 kts | 160° |
| 2026-04-22 13:01 | 53.25416 | -2.27612 | 31830 ft | 473 kts | 160° |
| 2026-04-22 13:01 | 53.22383 | -2.25495 | 32099 ft | 473 kts | 160° |
| 2026-04-22 13:01 | 53.19353 | -2.23385 | 32386 ft | 471 kts | 160° |
| 2026-04-22 13:01 | 53.16330 | -2.21285 | 32713 ft | 470 kts | 160° |
| 2026-04-22 13:02 | 53.13307 | -2.19189 | 33007 ft | 470 kts | 160° |
| 2026-04-22 13:02 | 53.10299 | -2.17100 | 33330 ft | 468 kts | 159° |
| 2026-04-22 13:02 | 53.07298 | -2.15017 | 33650 ft | 467 kts | 160° |
| 2026-04-22 13:02 | 53.04295 | -2.12944 | 33939 ft | 467 kts | 160° |
| 2026-04-22 13:03 | 53.01297 | -2.10881 | 34220 ft | 466 kts | 160° |
| 2026-04-22 13:03 | 52.98346 | -2.08851 | 34487 ft | 465 kts | 160° |
| 2026-04-22 13:03 | 52.95356 | -2.06800 | 34716 ft | 465 kts | 160° |
| 2026-04-22 13:03 | 52.92364 | -2.04745 | 34947 ft | 465 kts | 160° |
| 2026-04-22 13:04 | 52.89378 | -2.02695 | 35182 ft | 464 kts | 160° |
| 2026-04-22 13:04 | 52.86398 | -2.00652 | 35424 ft | 464 kts | 160° |
| 2026-04-22 13:04 | 52.83406 | -1.98603 | 35580 ft | 465 kts | 160° |
| 2026-04-22 13:04 | 52.80417 | -1.96561 | 35797 ft | 464 kts | 159° |
| 2026-04-22 13:05 | 52.77435 | -1.94528 | 36034 ft | 463 kts | 159° |
| 2026-04-22 13:05 | 52.74454 | -1.92497 | 36191 ft | 464 kts | 160° |
| 2026-04-22 13:05 | 52.71466 | -1.90473 | 36368 ft | 464 kts | 159° |
| 2026-04-22 13:05 | 52.68478 | -1.88452 | 36566 ft | 464 kts | 160° |
| 2026-04-22 13:06 | 52.65490 | -1.86432 | 36681 ft | 465 kts | 160° |
| 2026-04-22 13:06 | 52.62499 | -1.84411 | 36880 ft | 464 kts | 160° |
| 2026-04-22 13:06 | 52.59514 | -1.82392 | 37075 ft | 463 kts | 159° |
| 2026-04-22 13:06 | 52.56533 | -1.80375 | 37281 ft | 463 kts | 160° |
| 2026-04-22 13:07 | 52.53557 | -1.78364 | 37354 ft | 462 kts | 159° |
| 2026-04-22 13:07 | 52.47615 | -1.74361 | 37356 ft | 461 kts | 159° |
| 2026-04-22 13:08 | 52.41712 | -1.70402 | 37356 ft | 461 kts | 160° |
| 2026-04-22 13:08 | 52.35760 | -1.66426 | 37356 ft | 463 kts | 160° |
| 2026-04-22 13:09 | 52.29876 | -1.62137 | 37356 ft | 463 kts | 156° |
| 2026-04-22 13:09 | 52.24102 | -1.57512 | 37388 ft | 462 kts | 156° |
| 2026-04-22 13:10 | 52.18326 | -1.52907 | 37407 ft | 461 kts | 156° |
| 2026-04-22 13:10 | 52.12539 | -1.48419 | 37410 ft | 461 kts | 156° |
| 2026-04-22 13:11 | 52.06729 | -1.43984 | 37389 ft | 462 kts | 157° |
| 2026-04-22 13:11 | 52.00904 | -1.39548 | 37314 ft | 463 kts | 156° |
| 2026-04-22 13:12 | 51.95075 | -1.35096 | 37306 ft | 464 kts | 156° |
| 2026-04-22 13:12 | 51.89234 | -1.30635 | 37316 ft | 464 kts | 156° |
| 2026-04-22 13:13 | 51.84380 | -1.26938 | 37321 ft | 464 kts | 157° |
| 2026-04-22 13:13 | 51.77584 | -1.21787 | 37332 ft | 464 kts | 156° |
| 2026-04-22 13:14 | 51.72691 | -1.18093 | 37301 ft | 464 kts | 157° |
| 2026-04-22 13:14 | 51.66839 | -1.13690 | 37306 ft | 464 kts | 157° |
| 2026-04-22 13:15 | 51.60987 | -1.09292 | 37298 ft | 465 kts | 157° |
| 2026-04-22 13:15 | 51.55121 | -1.04896 | 37296 ft | 465 kts | 157° |
| 2026-04-22 13:16 | 51.49257 | -1.00516 | 37305 ft | 465 kts | 157° |
| 2026-04-22 13:16 | 51.43396 | -0.96141 | 37316 ft | 465 kts | 157° |
| 2026-04-22 13:17 | 51.37527 | -0.91776 | 37328 ft | 465 kts | 157° |
| 2026-04-22 13:17 | 51.31641 | -0.87423 | 37307 ft | 466 kts | 157° |
| 2026-04-22 13:18 | 51.25748 | -0.83078 | 37303 ft | 467 kts | 157° |
| 2026-04-22 13:18 | 51.19875 | -0.78757 | 37309 ft | 468 kts | 157° |
| 2026-04-22 13:19 | 51.13967 | -0.74414 | 37309 ft | 468 kts | 157° |
| 2026-04-22 13:19 | 51.08051 | -0.70079 | 37319 ft | 468 kts | 157° |
| 2026-04-22 13:20 | 51.02142 | -0.65759 | 37323 ft | 467 kts | 157° |
| 2026-04-22 13:20 | 50.96231 | -0.61456 | 37311 ft | 467 kts | 157° |
| 2026-04-22 13:21 | 50.90316 | -0.57157 | 37310 ft | 467 kts | 157° |
| 2026-04-22 13:21 | 50.84403 | -0.52873 | 37304 ft | 468 kts | 158° |
| 2026-04-22 13:22 | 50.78480 | -0.48602 | 37304 ft | 468 kts | 158° |
| 2026-04-22 13:22 | 50.72562 | -0.44336 | 37310 ft | 468 kts | 157° |
| 2026-04-22 13:23 | 50.66647 | -0.40084 | 37310 ft | 467 kts | 158° |
| 2026-04-22 13:23 | 50.60717 | -0.35850 | 37293 ft | 468 kts | 158° |
| 2026-04-22 13:24 | 50.54829 | -0.31650 | 37288 ft | 468 kts | 158° |
| 2026-04-22 13:24 | 50.48897 | -0.27424 | 37285 ft | 468 kts | 158° |
| 2026-04-22 13:25 | 50.45927 | -0.25316 | 37297 ft | 468 kts | 158° |